MDSD/SDQ METAR and TAF weather

Enter ICAO airport designator
Station Type Date Time Source
MDSD METAR 2021/01/16 02:00 UTC NOAA

MDSD 160200Z 00000KT 9999 FEW014 25/24 Q1015


Station Type Date Time Source
MDSD Decoded METAR 2021/01/16 02:00 UTC NOAA

Las Americas, Dominican Republic (MDSD) 18-26N 069-40W
Jan 15, 2021 - 09:00 PM EST / 2021.01.16 0200 UTC
Wind: Calm:0
Visibility: greater than 7 mile(s):0
Sky conditions: mostly clear
Temperature: 77 F (25 C)
Dew Point: 75 F (24 C)
Relative Humidity: 94%
Pressure (altimeter): 29.97 in. Hg (1015 hPa)
ob: MDSD 160200Z 00000KT 9999 FEW014 25/24 Q1015
cycle: 2

Station Type Date Time Source
MDSD TAF 2021/01/15 18:06 UTC NOAA

TAF MDSD 151600Z 1518/1618 15006KT 9999 SCT023 BKN300

Example: see airport list